Time;durP1;ratioP1;P1;durP2;ratioP2;P2;SDS_P1;SDS_P2;PMS_P1;PMS_P2;Temp;Humidity;BMP_temperature;BMP_pressure;BME280_temperature;BME280_humidity;BME280_pressure;Samples;Min_cycle;Max_cycle;Signal;HPM_P1;HPM_P2
2023/01/21 00:01:34;;;;;;;;;;;15.40;40.30;;;;;;5142647;27;20293;-67
2023/01/21 00:03:59;;;;;;;;;;;15.40;40.30;;;;;;5139416;27;19916;-67
2023/01/21 00:06:25;;;;;;;;;;;15.40;40.30;;;;;;5141315;27;19916;-66
2023/01/21 00:08:51;;;;;;;;;;;15.40;40.20;;;;;;5141482;27;19915;-66
2023/01/21 00:11:16;;;;;;;;;;;15.50;40.30;;;;;;5139701;27;20005;-66
2023/01/21 00:13:44;;;;;;;;;;;15.40;40.10;;;;;;5140084;27;19923;-66
2023/01/21 00:16:10;;;;;;;;;;;15.50;40.10;;;;;;5139802;27;19915;-66
2023/01/21 00:18:35;;;;;;;;;;;15.40;40.10;;;;;;5138537;27;20392;-66
2023/01/21 00:21:01;;;;;;;;;;;15.40;40.10;;;;;;5140053;27;19998;-66
2023/01/21 00:23:27;;;;;;;;;;;15.40;40.20;;;;;;5141456;27;20018;-67
2023/01/21 00:26:01;;;;;;;;;;;15.40;40.30;;;;;;5140648;27;19916;-67
2023/01/21 00:28:27;;;;;;;;;;;15.40;40.30;;;;;;5137540;27;19922;-66
2023/01/21 00:30:55;;;;;;;;;;;15.40;40.30;;;;;;5141661;27;19915;-68
2023/01/21 00:33:21;;;;;;;;;;;15.40;40.20;;;;;;5138200;27;19920;-68
2023/01/21 00:35:55;;;;;;;;;;;15.40;40.20;;;;;;5135653;27;19938;-68
2023/01/21 00:38:20;;;;;;;;;;;15.40;40.20;;;;;;5140484;27;20285;-68
2023/01/21 00:40:46;;;;;;;;;;;15.40;40.20;;;;;;5139026;27;19919;-68
2023/01/21 00:43:11;;;;;;;;;;;15.40;40.20;;;;;;5138536;27;19927;-68
2023/01/21 00:45:37;;;;;;;;;;;15.40;40.10;;;;;;5137114;27;19923;-68
2023/01/21 00:48:02;;;;;;;;;;;15.40;40.10;;;;;;5140406;27;20281;-67
2023/01/21 00:50:28;;;;;;;;;;;15.40;40.00;;;;;;5138389;27;19922;-68
2023/01/21 00:52:53;;;;;;;;;;;15.40;40.10;;;;;;5139665;27;19963;-68
2023/01/21 00:55:19;;;;;;;;;;;15.30;40.00;;;;;;5136240;27;19919;-68
2023/01/21 00:57:45;;;;;;;;;;;15.40;40.10;;;;;;5139573;27;19916;-67
2023/01/21 01:00:11;;;;;;;;;;;15.40;40.10;;;;;;5136892;27;20358;-68
2023/01/21 01:02:37;;;;;;;;;;;15.40;40.10;;;;;;5139068;27;19915;-68
2023/01/21 01:05:07;;;;;;;;;;;15.30;40.00;;;;;;5140948;27;19914;-66
2023/01/21 01:07:33;;;;;;;;;;;15.40;40.20;;;;;;5137820;27;19926;-67
2023/01/21 01:09:59;;;;;;;;;;;15.30;40.20;;;;;;5139566;27;20320;-68
2023/01/21 01:12:24;;;;;;;;;;;15.30;40.10;;;;;;5141137;27;19919;-67
2023/01/21 01:14:50;;;;;;;;;;;15.30;40.00;;;;;;5141415;27;20336;-70
2023/01/21 01:17:15;;;;;;;;;;;15.30;40.10;;;;;;5139520;27;19915;-68
2023/01/21 01:19:41;;;;;;;;;;;15.30;40.10;;;;;;5138099;27;19923;-67
2023/01/21 01:22:06;;;;;;;;;;;15.20;40.20;;;;;;5140822;27;19915;-67
2023/01/21 01:24:32;;;;;;;;;;;15.30;40.20;;;;;;5138405;27;20311;-67
2023/01/21 01:26:57;;;;;;;;;;;15.30;40.20;;;;;;5141203;27;19915;-67
2023/01/21 01:29:23;;;;;;;;;;;15.30;40.10;;;;;;5137015;27;19915;-68
2023/01/21 01:31:48;;;;;;;;;;;15.30;40.00;;;;;;5139429;27;19919;-69
2023/01/21 01:34:14;;;;;;;;;;;15.30;39.90;;;;;;5137165;27;19922;-70
2023/01/21 01:36:39;;;;;;;;;;;15.30;39.90;;;;;;5139916;27;19926;-67
2023/01/21 01:39:05;;;;;;;;;;;15.30;39.90;;;;;;5137016;27;19931;-66
2023/01/21 01:41:31;;;;;;;;;;;15.30;39.80;;;;;;5141398;27;19922;-68
2023/01/21 01:46:40;;;;;;;;;;;15.20;40.00;;;;;;5099615;27;19908;-68
2023/01/21 01:54:36;;;;;;;;;;;15.10;39.90;;;;;;5115933;27;19916;-66
2023/01/21 01:57:04;;;;;;;;;;;15.20;40.00;;;;;;5107419;28;19928;-68
2023/01/21 01:59:30;;;;;;;;;;;15.10;40.10;;;;;;5141710;27;19916;-69
2023/01/21 02:01:58;;;;;;;;;;;15.10;40.00;;;;;;5106793;28;20435;-69
2023/01/21 02:04:26;;;;;;;;;;;15.10;40.00;;;;;;5138632;27;20378;-68
2023/01/21 02:06:53;;;;;;;;;;;15.10;40.00;;;;;;5107077;28;19920;-67
2023/01/21 02:09:18;;;;;;;;;;;15.10;40.10;;;;;;5107238;28;19999;-69
2023/01/21 02:11:44;;;;;;;;;;;15.10;40.10;;;;;;5106650;28;20003;-66
2023/01/21 02:14:10;;;;;;;;;;;15.20;40.10;;;;;;5107850;28;19916;-67
2023/01/21 02:25:10;;;;;;;;;;;15.20;39.80;;;;;;5117936;27;1868211;-69
2023/01/21 02:27:56;;;;;;;;;;;15.10;39.80;;;;;;5124320;27;19919;-69
2023/01/21 02:30:41;;;;;;;;;;;15.10;39.70;;;;;;5132316;27;20014;-69
2023/01/21 02:36:13;;;;;;;;;;;15.10;39.90;;;;;;5121206;27;20382;-68
2023/01/21 02:38:43;;;;;;;;;;;15.10;39.90;;;;;;5119113;28;19961;-68
2023/01/21 02:41:29;;;;;;;;;;;15.10;39.90;;;;;;5115767;28;20321;-69
2023/01/21 02:46:40;;;;;;;;;;;15.10;39.80;;;;;;5115517;27;1888863;-70
2023/01/21 02:49:10;;;;;;;;;;;15.10;39.90;;;;;;5144023;27;19915;-68
2023/01/21 02:51:36;;;;;;;;;;;15.00;39.80;;;;;;5147134;27;19958;-66
2023/01/21 02:54:21;;;;;;;;;;;15.00;40.00;;;;;;5145587;27;20340;-67
2023/01/21 02:56:47;;;;;;;;;;;15.00;39.90;;;;;;5147670;27;19923;-68
2023/01/21 02:59:12;;;;;;;;;;;15.00;39.90;;;;;;5146248;27;19923;-69
2023/01/21 03:01:58;;;;;;;;;;;15.00;39.90;;;;;;5146774;27;20018;-67
2023/01/21 03:04:31;;;;;;;;;;;15.00;40.00;;;;;;5145039;27;19926;-67
2023/01/21 03:07:00;;;;;;;;;;;15.00;40.00;;;;;;5165572;27;19971;-68
2023/01/21 03:09:27;;;;;;;;;;;15.00;40.00;;;;;;5145400;27;19919;-69
2023/01/21 03:12:13;;;;;;;;;;;14.90;40.00;;;;;;5149123;27;20322;-69
2023/01/21 03:17:34;;;;;;;;;;;14.90;40.00;;;;;;5162032;27;20404;-71
2023/01/21 03:22:49;;;;;;;;;;;15.00;40.00;;;;;;5097987;27;19919;-69
2023/01/21 03:25:16;;;;;;;;;;;15.10;40.70;;;;;;5095379;28;20309;-68
2023/01/21 03:27:43;;;;;;;;;;;15.00;39.90;;;;;;5096223;28;19963;-68
2023/01/21 03:30:12;;;;;;;;;;;15.00;40.00;;;;;;5094527;28;19930;-69
2023/01/21 03:32:38;;;;;;;;;;;15.00;40.00;;;;;;5094647;28;19920;-69
2023/01/21 03:35:04;;;;;;;;;;;15.00;39.90;;;;;;5097086;28;19916;-67
2023/01/21 03:37:32;;;;;;;;;;;14.90;39.90;;;;;;5094970;28;19920;-66
2023/01/21 03:42:40;;;;;;;;;;;15.00;39.80;;;;;;5113902;27;1874617;-67
2023/01/21 03:45:07;;;;;;;;;;;15.00;39.80;;;;;;5164443;27;19922;-67
2023/01/21 03:47:34;;;;;;;;;;;15.00;39.90;;;;;;5143677;27;19919;-66
2023/01/21 03:50:04;;;;;;;;;;;15.00;39.80;;;;;;5145853;27;19969;-68
2023/01/21 03:52:30;;;;;;;;;;;15.00;39.80;;;;;;5146098;27;20459;-68
2023/01/21 03:54:55;;;;;;;;;;;15.00;39.80;;;;;;5144279;27;20054;-66
2023/01/21 03:57:21;;;;;;;;;;;15.00;39.80;;;;;;5146516;27;20257;-66
2023/01/21 03:59:46;;;;;;;;;;;15.00;39.70;;;;;;5145574;27;19914;-67
2023/01/21 04:02:12;;;;;;;;;;;15.00;39.70;;;;;;5164384;27;19919;-66
2023/01/21 04:04:37;;;;;;;;;;;15.00;39.70;;;;;;5164598;27;19923;-66
2023/01/21 04:07:06;;;;;;;;;;;15.00;39.60;;;;;;5144044;27;19926;-68
2023/01/21 04:09:31;;;;;;;;;;;15.00;39.60;;;;;;5162452;27;20314;-67
2023/01/21 04:11:59;;;;;;;;;;;15.00;39.60;;;;;;5163307;27;19915;-66
2023/01/21 04:14:24;;;;;;;;;;;15.00;39.60;;;;;;5162426;27;20361;-67
2023/01/21 04:16:50;;;;;;;;;;;15.00;39.60;;;;;;5146863;27;20379;-66
2023/01/21 04:19:15;;;;;;;;;;;15.00;39.60;;;;;;5146855;27;19992;-68
2023/01/21 04:21:41;;;;;;;;;;;15.00;39.60;;;;;;5145365;27;19934;-66
2023/01/21 04:24:06;;;;;;;;;;;15.00;39.60;;;;;;5145365;27;19916;-67
2023/01/21 04:26:32;;;;;;;;;;;15.00;39.60;;;;;;5164987;27;20254;-66
2023/01/21 04:28:57;;;;;;;;;;;15.00;39.60;;;;;;5150039;27;19958;-67
2023/01/21 04:31:23;;;;;;;;;;;15.00;39.60;;;;;;5144099;27;19919;-67
2023/01/21 04:33:48;;;;;;;;;;;15.00;39.60;;;;;;5145152;27;20006;-67
2023/01/21 04:36:14;;;;;;;;;;;15.00;39.60;;;;;;5164726;27;20010;-67
2023/01/21 04:38:39;;;;;;;;;;;15.00;39.60;;;;;;5144640;27;19915;-66
2023/01/21 04:41:05;;;;;;;;;;;14.90;40.30;;;;;;5144379;27;20009;-66
2023/01/21 04:43:30;;;;;;;;;;;15.00;39.70;;;;;;5163190;27;20297;-68
2023/01/21 04:45:56;;;;;;;;;;;15.00;39.70;;;;;;5146336;27;20445;-67
2023/01/21 04:48:21;;;;;;;;;;;15.00;39.60;;;;;;5163885;27;19921;-68
2023/01/21 04:50:47;;;;;;;;;;;15.00;39.60;;;;;;5163587;27;19922;-68
2023/01/21 04:53:12;;;;;;;;;;;15.00;39.70;;;;;;5136855;27;20327;-67
2023/01/21 04:55:38;;;;;;;;;;;15.00;39.70;;;;;;5131830;27;19963;-67
2023/01/21 04:58:03;;;;;;;;;;;15.00;39.70;;;;;;5130023;27;19919;-68
2023/01/21 05:00:29;;;;;;;;;;;14.90;39.60;;;;;;5150952;27;19959;-67
2023/01/21 05:02:55;;;;;;;;;;;14.90;39.60;;;;;;5134675;27;19959;-68
2023/01/21 05:05:21;;;;;;;;;;;14.90;39.70;;;;;;5150593;27;19982;-66
2023/01/21 05:07:46;;;;;;;;;;;14.90;39.60;;;;;;5130289;27;19985;-66
2023/01/21 05:10:15;;;;;;;;;;;14.90;39.70;;;;;;5149074;27;19975;-68
2023/01/21 05:12:41;;;;;;;;;;;14.90;39.70;;;;;;5127366;27;20365;-67
2023/01/21 05:15:07;;;;;;;;;;;14.90;39.70;;;;;;5148871;27;20019;-68
2023/01/21 05:17:32;;;;;;;;;;;14.90;39.60;;;;;;5147879;27;19915;-69
2023/01/21 05:19:58;;;;;;;;;;;14.90;39.80;;;;;;5131223;27;20372;-69
2023/01/21 05:22:23;;;;;;;;;;;14.90;39.70;;;;;;5128476;27;19942;-69
2023/01/21 05:24:49;;;;;;;;;;;14.90;39.80;;;;;;5130515;27;19922;-66
2023/01/21 05:27:14;;;;;;;;;;;14.90;39.70;;;;;;5132119;27;19962;-69
2023/01/21 05:29:40;;;;;;;;;;;14.90;39.70;;;;;;5130148;27;19941;-68
2023/01/21 05:32:06;;;;;;;;;;;14.90;39.70;;;;;;5148258;27;19915;-66
2023/01/21 05:34:34;;;;;;;;;;;14.90;39.70;;;;;;5149661;27;20269;-68
2023/01/21 05:37:00;;;;;;;;;;;14.80;39.70;;;;;;5149612;27;20285;-69
2023/01/21 05:39:25;;;;;;;;;;;14.80;39.70;;;;;;5129145;27;19922;-66
2023/01/21 05:41:51;;;;;;;;;;;14.80;39.70;;;;;;5131333;27;19919;-68
2023/01/21 05:44:16;;;;;;;;;;;14.80;39.70;;;;;;5148494;27;19915;-69
2023/01/21 05:46:42;;;;;;;;;;;14.80;39.70;;;;;;5128900;27;20002;-67
2023/01/21 05:49:07;;;;;;;;;;;14.90;39.80;;;;;;5129513;27;19923;-67
2023/01/21 05:51:33;;;;;;;;;;;14.80;39.70;;;;;;5148607;27;19935;-68
2023/01/21 05:53:58;;;;;;;;;;;14.80;39.70;;;;;;5129960;27;19915;-68
2023/01/21 05:56:24;;;;;;;;;;;14.80;39.70;;;;;;5148870;27;19919;-69
2023/01/21 05:58:49;;;;;;;;;;;14.80;39.70;;;;;;5148038;27;19915;-68
2023/01/21 06:01:15;;;;;;;;;;;14.90;39.80;;;;;;5149235;27;19971;-69
2023/01/21 06:03:40;;;;;;;;;;;14.80;39.70;;;;;;5148688;27;20254;-68
2023/01/21 06:06:06;;;;;;;;;;;14.80;39.70;;;;;;5147955;27;19958;-69
2023/01/21 06:08:31;;;;;;;;;;;14.80;39.70;;;;;;5129381;27;19922;-69
2023/01/21 06:10:57;;;;;;;;;;;14.80;39.70;;;;;;5131045;27;19922;-69
2023/01/21 06:13:23;;;;;;;;;;;14.80;39.80;;;;;;5145315;27;19927;-68
2023/01/21 06:15:48;;;;;;;;;;;14.80;39.80;;;;;;5127483;27;19915;-68
2023/01/21 06:18:14;;;;;;;;;;;14.80;39.80;;;;;;5147052;27;19915;-69
2023/01/21 06:20:42;;;;;;;;;;;14.90;39.80;;;;;;5147316;27;19919;-66
2023/01/21 06:23:07;;;;;;;;;;;14.80;39.70;;;;;;5147464;27;20366;-69
2023/01/21 06:25:33;;;;;;;;;;;14.80;39.70;;;;;;5128766;27;19926;-71
2023/01/21 06:28:00;;;;;;;;;;;14.80;39.70;;;;;;5130108;27;19921;-66
2023/01/21 06:30:25;;;;;;;;;;;14.80;39.70;;;;;;5147353;27;19962;-67
2023/01/21 06:32:51;;;;;;;;;;;14.80;39.70;;;;;;5129706;27;19971;-67
2023/01/21 06:35:17;;;;;;;;;;;14.80;39.70;;;;;;5130690;27;19915;-68
2023/01/21 06:37:43;;;;;;;;;;;14.80;39.80;;;;;;5148087;27;20246;-66
2023/01/21 06:40:09;;;;;;;;;;;14.80;39.80;;;;;;5147422;27;20357;-69
2023/01/21 06:42:35;;;;;;;;;;;14.80;39.70;;;;;;5125409;27;20130;-67
2023/01/21 06:45:04;;;;;;;;;;;14.80;39.80;;;;;;5127535;27;20281;-66
2023/01/21 06:47:29;;;;;;;;;;;14.80;39.70;;;;;;5125474;27;19927;-66
2023/01/21 06:49:55;;;;;;;;;;;14.80;39.70;;;;;;5127224;27;19975;-67
2023/01/21 06:52:20;;;;;;;;;;;14.80;39.70;;;;;;5126383;27;19915;-66
2023/01/21 06:54:47;;;;;;;;;;;14.80;39.70;;;;;;5111486;27;19923;-66
2023/01/21 06:57:13;;;;;;;;;;;14.80;39.70;;;;;;5126515;27;19915;-66
2023/01/21 06:59:38;;;;;;;;;;;14.80;39.80;;;;;;5128900;27;20270;-70
2023/01/21 07:02:04;;;;;;;;;;;14.80;39.70;;;;;;5127130;27;19972;-69
2023/01/21 07:04:30;;;;;;;;;;;14.80;39.70;;;;;;5124908;27;19915;-66
2023/01/21 07:06:55;;;;;;;;;;;14.80;39.70;;;;;;5124959;27;19946;-68
2023/01/21 07:09:27;;;;;;;;;;;14.80;39.70;;;;;;5125632;27;19960;-69
2023/01/21 07:11:54;;;;;;;;;;;14.90;39.70;;;;;;5124354;27;20006;-66
2023/01/21 07:14:19;;;;;;;;;;;14.80;39.80;;;;;;5123574;27;19916;-69
2023/01/21 07:16:45;;;;;;;;;;;14.80;39.70;;;;;;5122012;27;19946;-66
2023/01/21 07:19:11;;;;;;;;;;;14.80;39.70;;;;;;5131175;27;20007;-67
2023/01/21 07:21:36;;;;;;;;;;;14.80;39.70;;;;;;5126792;27;19972;-66
2023/01/21 07:24:02;;;;;;;;;;;14.80;39.70;;;;;;5128898;27;19923;-66
2023/01/21 07:26:27;;;;;;;;;;;14.80;39.70;;;;;;5124512;27;19925;-66
2023/01/21 07:28:53;;;;;;;;;;;14.80;39.70;;;;;;5128022;27;19934;-66
2023/01/21 07:31:18;;;;;;;;;;;14.80;39.80;;;;;;5125132;27;19923;-67
2023/01/21 07:33:47;;;;;;;;;;;14.80;40.50;;;;;;5126218;28;20281;-66
2023/01/21 07:36:12;;;;;;;;;;;14.80;39.80;;;;;;5129296;27;19924;-67
2023/01/21 07:38:38;;;;;;;;;;;14.80;39.80;;;;;;5123286;28;20251;-67
2023/01/21 07:41:03;;;;;;;;;;;14.70;39.70;;;;;;5130740;27;19972;-66
2023/01/21 07:43:29;;;;;;;;;;;14.80;39.80;;;;;;5132515;27;19929;-67
2023/01/21 07:45:55;;;;;;;;;;;14.70;39.80;;;;;;5127200;27;19919;-69
2023/01/21 07:48:20;;;;;;;;;;;14.80;39.90;;;;;;5131153;27;20376;-66
2023/01/21 07:50:48;;;;;;;;;;;14.80;39.80;;;;;;5147398;27;19915;-66
2023/01/21 07:53:14;;;;;;;;;;;14.80;39.90;;;;;;5128819;27;19926;-66
2023/01/21 07:55:40;;;;;;;;;;;14.70;39.80;;;;;;5146170;27;19923;-66
2023/01/21 07:58:05;;;;;;;;;;;14.80;39.90;;;;;;5146075;27;19915;-67
2023/01/21 08:00:31;;;;;;;;;;;14.70;39.80;;;;;;5147214;27;19975;-69
2023/01/21 08:02:57;;;;;;;;;;;14.70;39.80;;;;;;5147466;27;19958;-67
2023/01/21 08:05:23;;;;;;;;;;;14.80;39.90;;;;;;5127299;27;19966;-66
2023/01/21 08:07:49;;;;;;;;;;;14.70;39.80;;;;;;5147097;27;19915;-66
2023/01/21 08:10:15;;;;;;;;;;;14.80;39.90;;;;;;5145915;27;20380;-68
2023/01/21 08:12:40;;;;;;;;;;;14.70;39.80;;;;;;5145744;27;20052;-67
2023/01/21 08:15:06;;;;;;;;;;;14.70;39.80;;;;;;5125322;27;19916;-66
2023/01/21 08:17:32;;;;;;;;;;;14.70;39.80;;;;;;5147557;27;19915;-66
2023/01/21 08:19:57;;;;;;;;;;;14.70;39.90;;;;;;5128453;27;20376;-66
2023/01/21 08:22:24;;;;;;;;;;;14.70;39.80;;;;;;5125722;27;19974;-69
2023/01/21 08:24:50;;;;;;;;;;;14.70;39.90;;;;;;5128011;27;19941;-67
2023/01/21 08:27:16;;;;;;;;;;;14.70;39.90;;;;;;5129563;27;19914;-68
2023/01/21 08:29:41;;;;;;;;;;;14.70;39.90;;;;;;5131832;27;20362;-66
2023/01/21 08:32:07;;;;;;;;;;;14.70;39.90;;;;;;5131577;27;19919;-66
2023/01/21 08:34:32;;;;;;;;;;;14.70;39.90;;;;;;5150511;27;19942;-68
2023/01/21 08:36:58;;;;;;;;;;;14.70;40.00;;;;;;5129042;27;20345;-69
2023/01/21 08:39:23;;;;;;;;;;;14.70;39.90;;;;;;5132352;27;19959;-67
2023/01/21 08:41:49;;;;;;;;;;;14.70;39.90;;;;;;5130958;27;19923;-67
2023/01/21 08:44:15;;;;;;;;;;;14.70;39.90;;;;;;5135561;27;19915;-69
2023/01/21 08:46:40;;;;;;;;;;;14.70;39.90;;;;;;5128492;27;19919;-69
2023/01/21 08:49:09;;;;;;;;;;;14.70;39.90;;;;;;5130189;27;19915;-68
2023/01/21 08:51:34;;;;;;;;;;;14.70;39.80;;;;;;5150428;27;20195;-68
2023/01/21 08:54:00;;;;;;;;;;;14.70;39.80;;;;;;5132654;27;20179;-68
2023/01/21 08:56:25;;;;;;;;;;;14.70;39.90;;;;;;5128922;27;19920;-66
2023/01/21 08:58:58;;;;;;;;;;;14.70;39.80;;;;;;5135585;27;19967;-66
2023/01/21 09:01:24;;;;;;;;;;;14.70;39.80;;;;;;5134016;27;19923;-67
2023/01/21 09:03:54;;;;;;;;;;;14.70;39.80;;;;;;5150435;27;20408;-66
2023/01/21 09:06:20;;;;;;;;;;;14.70;39.80;;;;;;5149115;27;19975;-67
2023/01/21 09:08:46;;;;;;;;;;;14.70;39.80;;;;;;5128790;27;20006;-66
2023/01/21 09:11:12;;;;;;;;;;;14.70;39.90;;;;;;5150474;27;20272;-67
2023/01/21 09:13:38;;;;;;;;;;;14.70;39.80;;;;;;5147046;27;19915;-66
2023/01/21 09:16:12;;;;;;;;;;;14.70;39.80;;;;;;5148222;27;19919;-66
2023/01/21 09:18:37;;;;;;;;;;;14.70;39.90;;;;;;5131405;27;19926;-69
2023/01/21 09:21:04;;;;;;;;;;;14.70;39.90;;;;;;5130387;27;19923;-66
2023/01/21 09:23:33;;;;;;;;;;;14.70;39.90;;;;;;5130678;27;19915;-66
2023/01/21 09:26:00;;;;;;;;;;;14.70;39.90;;;;;;5127771;27;19916;-66
2023/01/21 09:28:26;;;;;;;;;;;14.60;39.90;;;;;;5128804;27;19927;-68
2023/01/21 09:30:59;;;;;;;;;;;14.70;39.90;;;;;;5150519;27;20312;-67
2023/01/21 09:33:25;;;;;;;;;;;14.70;39.90;;;;;;5133053;27;19915;-66
2023/01/21 09:35:52;;;;;;;;;;;14.70;39.90;;;;;;5128617;27;19938;-66
2023/01/21 09:38:18;;;;;;;;;;;14.70;40.70;;;;;;5127888;27;19919;-67
2023/01/21 09:40:44;;;;;;;;;;;14.60;39.80;;;;;;5130180;27;19923;-69
2023/01/21 09:43:11;;;;;;;;;;;14.70;39.90;;;;;;5151577;27;19927;-67
2023/01/21 09:45:38;;;;;;;;;;;14.70;39.90;;;;;;5128822;27;19915;-67
2023/01/21 09:48:07;;;;;;;;;;;14.60;39.90;;;;;;5146887;27;19915;-66
2023/01/21 09:50:35;;;;;;;;;;;14.70;40.00;;;;;;5149335;27;20144;-67
2023/01/21 09:53:05;;;;;;;;;;;14.60;39.90;;;;;;5129393;27;19978;-66
2023/01/21 10:00:55;;;;;;;;;;;14.70;39.90;;;;;;5088760;27;20266;-68
2023/01/21 10:03:28;;;;;;;;;;;14.70;40.00;;;;;;5080748;28;19966;-67
2023/01/21 10:05:59;;;;;;;;;;;14.60;40.70;;;;;;5082941;28;19986;-67
2023/01/21 10:08:45;;;;;;;;;;;14.60;39.90;;;;;;5087250;28;20433;-68
2023/01/21 10:11:20;;;;;;;;;;;14.60;40.00;;;;;;5087626;28;19933;-66
2023/01/21 10:14:06;;;;;;;;;;;14.60;40.00;;;;;;5080544;28;19975;-66
2023/01/21 10:16:51;;;;;;;;;;;14.60;40.00;;;;;;5087600;28;19960;-68
2023/01/21 10:19:21;;;;;;;;;;;14.60;40.00;;;;;;5087009;28;19921;-68
2023/01/21 10:24:30;;;;;;;;;;;14.60;40.00;;;;;;5089309;27;19927;-68
2023/01/21 10:26:56;;;;;;;;;;;14.60;40.00;;;;;;5086922;28;20271;-67
2023/01/21 10:29:23;;;;;;;;;;;14.50;40.00;;;;;;5086966;28;19916;-66
2023/01/21 10:31:52;;;;;;;;;;;14.60;40.10;;;;;;5087088;28;20482;-66
2023/01/21 10:34:18;;;;;;;;;;;14.60;40.10;;;;;;5120902;28;19921;-66
2023/01/21 10:39:47;;;;;;;;;;;14.60;40.10;;;;;;5075657;28;19934;-68
2023/01/21 10:45:17;;;;;;;;;;;14.60;40.10;;;;;;5116201;27;19918;-68
2023/01/21 10:47:49;;;;;;;;;;;14.60;40.10;;;;;;5116661;28;19981;-67
2023/01/21 10:53:30;;;;;;;;;;;14.60;40.20;;;;;;5160669;27;20006;-67
2023/01/21 10:56:16;;;;;;;;;;;14.60;40.20;;;;;;5129265;27;19934;-68
2023/01/21 10:58:44;;;;;;;;;;;14.50;40.20;;;;;;5124158;27;19919;-67
2023/01/21 11:01:15;;;;;;;;;;;14.50;40.30;;;;;;5130498;27;20425;-67
2023/01/21 11:06:21;;;;;;;;;;;14.60;40.40;;;;;;5114034;27;1863214;-68
2023/01/21 11:08:48;;;;;;;;;;;14.60;40.30;;;;;;5177370;27;19926;-68
2023/01/21 11:11:16;;;;;;;;;;;14.60;40.40;;;;;;5158587;27;19918;-67
2023/01/21 11:13:42;;;;;;;;;;;14.60;40.40;;;;;;5178022;27;20289;-68
2023/01/21 11:16:08;;;;;;;;;;;14.50;40.30;;;;;;5159499;27;19918;-68
2023/01/21 11:18:36;;;;;;;;;;;14.50;40.30;;;;;;5161623;27;19926;-68
2023/01/21 11:21:07;;;;;;;;;;;14.50;40.40;;;;;;5152027;27;19929;-69
2023/01/21 11:23:34;;;;;;;;;;;14.50;40.40;;;;;;5146220;27;20498;-67
2023/01/21 11:26:02;;;;;;;;;;;14.50;40.40;;;;;;5157455;27;19931;-68
2023/01/21 11:28:31;;;;;;;;;;;14.50;40.40;;;;;;5177275;27;19926;-68
2023/01/21 11:33:46;;;;;;;;;;;14.50;40.40;;;;;;5097943;27;20397;-66
2023/01/21 11:36:16;;;;;;;;;;;14.60;40.50;;;;;;5130340;27;19923;-67
2023/01/21 11:38:42;;;;;;;;;;;14.50;40.50;;;;;;5094932;28;19920;-66
2023/01/21 11:43:50;;;;;;;;;;;14.50;40.50;;;;;;5112464;27;1867689;-67
2023/01/21 11:51:46;;;;;;;;;;;14.40;40.60;;;;;;5116218;27;1863877;-70
2023/01/21 11:56:57;;;;;;;;;;;14.40;40.60;;;;;;5076030;28;20293;-68
2023/01/21 11:59:26;;;;;;;;;;;14.40;40.60;;;;;;5083872;28;20327;-68
2023/01/21 12:01:55;;;;;;;;;;;14.40;40.60;;;;;;5066734;28;19986;-68
2023/01/21 12:04:20;;;;;;;;;;;14.40;40.60;;;;;;5058478;28;19925;-66
2023/01/21 12:06:47;;;;;;;;;;;14.40;40.60;;;;;;5067413;28;19928;-66
2023/01/21 12:09:16;;;;;;;;;;;14.40;40.70;;;;;;5083180;28;19971;-67
2023/01/21 12:11:46;;;;;;;;;;;14.40;40.70;;;;;;5064216;28;19924;-68
2023/01/21 12:14:22;;;;;;;;;;;14.40;40.70;;;;;;5066514;28;19928;-67
2023/01/21 12:17:08;;;;;;;;;;;14.40;40.70;;;;;;5066199;28;20338;-66
2023/01/21 12:19:56;;;;;;;;;;;14.40;40.70;;;;;;5082372;28;19927;-67
2023/01/21 12:28:04;;;;;;;;;;;14.40;40.60;;;;;;5112658;27;1927453;-68
2023/01/21 12:35:53;;;;;;;;;;;14.40;40.70;;;;;;5113173;27;1865283;-67
2023/01/21 12:38:26;;;;;;;;;;;14.40;40.80;;;;;;5133645;27;19957;-66
2023/01/21 12:41:01;;;;;;;;;;;14.40;40.70;;;;;;5144905;27;19918;-69
2023/01/21 12:43:35;;;;;;;;;;;14.40;40.80;;;;;;5163464;27;19926;-68
2023/01/21 12:46:09;;;;;;;;;;;14.40;40.80;;;;;;5147348;27;19919;-66
2023/01/21 12:51:19;;;;;;;;;;;14.40;40.90;;;;;;5096806;27;20324;-66
2023/01/21 12:56:31;;;;;;;;;;;14.40;40.90;;;;;;5096136;27;20199;-68
2023/01/21 12:59:01;;;;;;;;;;;14.40;40.90;;;;;;5094516;28;19938;-67
2023/01/21 13:01:34;;;;;;;;;;;14.40;40.90;;;;;;5094226;28;20014;-68
2023/01/21 13:04:10;;;;;;;;;;;14.40;40.90;;;;;;5127751;27;20383;-68
2023/01/21 13:06:41;;;;;;;;;;;14.40;40.90;;;;;;5095134;28;20486;-68
2023/01/21 13:09:11;;;;;;;;;;;14.40;40.90;;;;;;5096626;28;20379;-69
2023/01/21 13:11:40;;;;;;;;;;;14.40;40.90;;;;;;5095402;28;19935;-68
2023/01/21 13:16:49;;;;;;;;;;;14.40;40.90;;;;;;5097521;27;19916;-69
2023/01/21 13:19:14;;;;;;;;;;;14.40;40.90;;;;;;5082845;28;19926;-66
2023/01/21 13:24:28;;;;;;;;;;;14.40;41.00;;;;;;5095985;27;20285;-68
2023/01/21 13:29:41;;;;;;;;;;;14.50;41.00;;;;;;5096496;27;19916;-67
2023/01/21 13:37:55;;;;;;;;;;;14.30;40.90;;;;;;5117561;27;20273;-68
2023/01/21 13:40:27;;;;;;;;;;;14.40;41.00;;;;;;5113028;28;19924;-71
2023/01/21 13:45:46;;;;;;;;;;;14.40;42.30;;;;;;5096763;27;19923;-68
2023/01/21 13:48:32;;;;;;;;;;;14.50;43.10;;;;;;5098541;28;19924;-68
2023/01/21 13:59:26;;;;;;;;;;;14.60;42.70;;;;;;5096846;27;20562;-69
2023/01/21 14:01:55;;;;;;;;;;;14.60;42.60;;;;;;5094977;28;20364;-68
2023/01/21 14:07:39;;;;;;;;;;;14.50;42.40;;;;;;5096760;27;20413;-69
2023/01/21 14:10:14;;;;;;;;;;;14.50;42.30;;;;;;5085944;28;20369;-70
2023/01/21 14:12:59;;;;;;;;;;;14.50;42.30;;;;;;5082996;28;20379;-69
2023/01/21 14:18:16;;;;;;;;;;;14.50;42.20;;;;;;5100272;27;20290;-69
2023/01/21 14:20:56;;;;;;;;;;;14.40;42.10;;;;;;5081917;28;19956;-70
2023/01/21 14:23:27;;;;;;;;;;;14.40;42.10;;;;;;5076929;28;19928;-67
2023/01/21 14:26:02;;;;;;;;;;;14.40;42.10;;;;;;5078831;28;20386;-68
2023/01/21 14:28:33;;;;;;;;;;;14.40;42.00;;;;;;5097152;28;20342;-68
2023/01/21 14:31:19;;;;;;;;;;;14.40;42.00;;;;;;5083491;28;19974;-69
2023/01/21 14:36:37;;;;;;;;;;;14.40;41.90;;;;;;5099212;27;19917;-67
2023/01/21 14:44:40;;;;;;;;;;;14.30;41.80;;;;;;5109181;27;1858947;-68
2023/01/21 14:49:55;;;;;;;;;;;14.40;41.90;;;;;;5095977;27;19942;-69
2023/01/21 14:52:29;;;;;;;;;;;14.40;41.80;;;;;;5095229;28;19963;-69
2023/01/21 14:54:55;;;;;;;;;;;14.40;41.80;;;;;;5100136;28;19931;-69
2023/01/21 15:00:12;;;;;;;;;;;14.30;41.70;;;;;;5115822;27;20457;-69
2023/01/21 15:02:40;;;;;;;;;;;14.30;41.70;;;;;;5112226;28;19924;-69
2023/01/21 15:07:57;;;;;;;;;;;14.30;41.70;;;;;;5096251;27;19922;-68
2023/01/21 15:10:28;;;;;;;;;;;14.30;41.70;;;;;;5083902;28;20489;-69
2023/01/21 15:12:55;;;;;;;;;;;14.40;41.80;;;;;;5084561;28;19921;-68
2023/01/21 15:18:30;;;;;;;;;;;14.30;41.70;;;;;;5099874;27;19926;-69
2023/01/21 15:20:57;;;;;;;;;;;14.30;41.70;;;;;;5125566;27;19956;-70
2023/01/21 15:28:55;;;;;;;;;;;14.30;41.60;;;;;;5094871;27;20267;-68
2023/01/21 15:34:03;;;;;;;;;;;14.30;41.60;;;;;;5112402;27;1864501;-70
2023/01/21 15:36:31;;;;;;;;;;;14.30;41.60;;;;;;5129634;27;20335;-70
2023/01/21 15:39:14;;;;;;;;;;;14.30;41.60;;;;;;5134490;27;20337;-69
2023/01/21 15:41:42;;;;;;;;;;;14.30;41.70;;;;;;5137339;27;20006;-68
2023/01/21 15:44:28;;;;;;;;;;;14.30;41.60;;;;;;5131357;27;20070;-67
2023/01/21 15:47:22;;;;;;;;;;;14.30;41.60;;;;;;5125083;27;19919;-68
2023/01/21 15:55:29;;;;;;;;;;;14.30;41.60;;;;;;5097290;27;19920;-69
2023/01/21 15:58:05;;;;;;;;;;;14.30;41.50;;;;;;5097035;28;20496;-68
2023/01/21 16:03:18;;;;;;;;;;;14.40;41.50;;;;;;5096102;27;19916;-66
2023/01/21 16:05:49;;;;;;;;;;;14.40;41.40;;;;;;5086257;28;19931;-68
2023/01/21 16:11:30;;;;;;;;;;;14.40;41.40;;;;;;5096942;27;19916;-68
2023/01/21 16:14:07;;;;;;;;;;;14.40;41.30;;;;;;5131392;27;20502;-67
2023/01/21 16:16:42;;;;;;;;;;;14.40;42.10;;;;;;5096713;28;19931;-67
2023/01/21 16:19:10;;;;;;;;;;;14.40;41.30;;;;;;5094664;28;19921;-67
2023/01/21 16:21:37;;;;;;;;;;;14.40;41.30;;;;;;5094776;28;20390;-67
2023/01/21 16:24:06;;;;;;;;;;;14.40;41.40;;;;;;5092905;28;19969;-67
2023/01/21 16:26:31;;;;;;;;;;;14.30;41.30;;;;;;5096879;28;20302;-67
2023/01/21 16:28:57;;;;;;;;;;;14.30;41.30;;;;;;5094544;28;19920;-67
2023/01/21 16:31:22;;;;;;;;;;;14.30;41.20;;;;;;5092013;28;19921;-67
2023/01/21 16:33:49;;;;;;;;;;;14.30;41.20;;;;;;5094197;28;19950;-67
2023/01/21 16:36:14;;;;;;;;;;;14.30;41.20;;;;;;5095205;28;19924;-68
2023/01/21 16:38:41;;;;;;;;;;;14.30;41.20;;;;;;5094453;28;19947;-69
2023/01/21 16:46:31;;;;;;;;;;;14.30;41.20;;;;;;5113765;27;1868588;-69
2023/01/21 16:48:58;;;;;;;;;;;14.30;41.20;;;;;;5150987;27;19927;-67
2023/01/21 16:51:27;;;;;;;;;;;14.30;41.20;;;;;;5147498;27;19919;-68
2023/01/21 16:54:12;;;;;;;;;;;14.30;41.20;;;;;;5149313;27;20002;-67
2023/01/21 16:56:45;;;;;;;;;;;14.30;41.10;;;;;;5148011;27;19936;-68
2023/01/21 16:59:30;;;;;;;;;;;14.30;41.10;;;;;;5151364;27;19926;-67